createdAt,value
2017-03-22T00:00:14.695Z,90.1
2017-03-22T00:01:23.581Z,90.29
2017-03-22T00:02:32.472Z,90.29
2017-03-22T00:03:42.340Z,90.2
2017-03-22T00:04:52.532Z,90.48
2017-03-22T00:06:02.777Z,90.48
2017-03-22T00:07:11.662Z,90.58
2017-03-22T00:08:20.874Z,90.67
2017-03-22T00:09:30.739Z,91.24
2017-03-22T00:10:40.606Z,90.86
2017-03-22T00:11:49.549Z,91.62
2017-03-22T00:12:58.435Z,91.33
2017-03-22T00:14:08.306Z,91.24
2017-03-22T00:15:18.174Z,91.81
2017-03-22T00:16:27.061Z,90.86
2017-03-22T00:17:36.323Z,90.48
2017-03-22T00:18:46.189Z,90.86
2017-03-22T00:19:56.056Z,90.77
2017-03-22T00:21:05.598Z,91.33
2017-03-22T00:22:15.134Z,91.24
2017-03-22T00:23:24.354Z,91.43
2017-03-22T00:24:33.246Z,91.33
2017-03-22T00:25:42.788Z,91.9
2017-03-22T00:26:51.998Z,92
2017-03-22T00:28:01.209Z,92.19
2017-03-22T00:29:10.417Z,92
2017-03-22T00:30:19.952Z,92.19
2017-03-22T00:31:29.501Z,92.33
2017-03-22T00:32:38.711Z,92.61
2017-03-22T00:33:48.258Z,92.19
2017-03-22T00:34:57.905Z,91.62
2017-03-22T00:36:07.113Z,91.57
2017-03-22T00:37:16.328Z,92
2017-03-22T00:38:25.219Z,92.24
2017-03-22T00:39:34.770Z,92.43
2017-03-22T00:40:44.136Z,92.33
2017-03-22T00:41:53.349Z,91.81
2017-03-22T00:43:02.561Z,92.14
2017-03-22T00:44:11.785Z,92.19
2017-03-22T00:45:21.976Z,92.19
2017-03-22T00:46:31.437Z,92.19
2017-03-22T00:47:40.651Z,93.13
2017-03-22T00:48:50.196Z,91.81
2017-03-22T00:50:00.066Z,91.76
2017-03-22T00:51:09.278Z,91.81
2017-03-22T00:52:18.217Z,91.9
2017-03-22T00:53:27.435Z,92.38
2017-03-22T00:54:36.653Z,91.86
2017-03-22T00:55:45.864Z,92
2017-03-22T00:56:55.073Z,92.47
2017-03-22T00:58:04.313Z,92.57
2017-03-22T00:59:13.524Z,91.86
2017-03-22T01:00:23.388Z,92
2017-03-22T01:01:32.596Z,92.19
2017-03-22T01:02:41.493Z,91.62
2017-03-22T01:03:51.140Z,91.9
2017-03-22T01:05:01.008Z,91.9
2017-03-22T01:06:10.231Z,91.81
2017-03-22T01:07:19.447Z,92.19
2017-03-22T01:08:28.338Z,92
2017-03-22T01:09:38.029Z,92.66
2017-03-22T01:10:47.567Z,92.47
2017-03-22T01:11:57.101Z,92.57
2017-03-22T01:13:06.636Z,92.19
2017-03-22T01:14:16.503Z,91.9
2017-03-22T01:15:27.040Z,91.81
2017-03-22T01:16:36.253Z,92.47
2017-03-22T01:17:45.478Z,93.23
2017-03-22T01:18:55.018Z,93.13
2017-03-22T01:20:04.556Z,93.51
2017-03-22T01:21:13.446Z,93.8
2017-03-22T01:22:22.337Z,93.04
2017-03-22T01:23:31.221Z,92.47
2017-03-22T01:24:41.002Z,93.13
2017-03-22T01:25:49.894Z,92
2017-03-22T01:26:59.032Z,92.19
2017-03-22T01:28:07.910Z,94.37
2017-03-22T01:29:17.445Z,93.8
2017-03-22T01:30:27.315Z,94.56
2017-03-22T01:31:36.194Z,94.65
2017-03-22T01:32:45.560Z,95.41
2017-03-22T01:33:55.435Z,96.07
2017-03-22T01:35:04.644Z,95.6
2017-03-22T01:36:14.511Z,95.88
2017-03-22T01:37:23.726Z,96.64
2017-03-22T01:38:32.991Z,95.88
2017-03-22T01:39:42.208Z,94.65
2017-03-22T01:40:51.433Z,94.13
2017-03-22T01:42:00.644Z,94.79
2017-03-22T01:43:10.181Z,94.98
2017-03-22T01:44:19.778Z,94.79
2017-03-22T01:45:29.647Z,95.26
2017-03-22T01:46:38.530Z,95.26
2017-03-22T01:47:47.415Z,95.07
2017-03-22T01:48:56.634Z,95.83
2017-03-22T01:50:06.158Z,95.55
2017-03-22T01:51:15.692Z,96.59
2017-03-22T01:52:24.901Z,96.97
2017-03-22T01:53:34.118Z,97.06
2017-03-22T01:54:43.660Z,97.54
2017-03-22T01:55:53.298Z,96.12
2017-03-22T01:57:02.231Z,96.5
2017-03-22T01:58:11.116Z,95.45
2017-03-22T01:59:20.673Z,95.74
2017-03-22T02:00:30.214Z,95.83
2017-03-22T02:01:39.675Z,95.55
2017-03-22T02:02:48.893Z,94.89
2017-03-22T02:03:59.083Z,94.13
2017-03-22T02:05:08.621Z,93.94
2017-03-22T02:06:18.157Z,93.94
2017-03-22T02:07:27.099Z,95.83
2017-03-22T02:08:36.316Z,96.31
2017-03-22T02:09:46.182Z,96.02
2017-03-22T02:10:56.047Z,96.02
2017-03-22T02:12:05.257Z,95.93
2017-03-22T02:13:14.946Z,95.74
2017-03-22T02:14:24.808Z,97.35
2017-03-22T02:15:34.345Z,97.44
2017-03-22T02:16:43.882Z,98.11
2017-03-22T02:17:52.768Z,97.63
2017-03-22T02:19:03.040Z,97.35
2017-03-22T02:20:12.903Z,96.78
2017-03-22T02:21:21.784Z,97.06
2017-03-22T02:22:30.990Z,97.44
2017-03-22T02:23:40.207Z,97.92
2017-03-22T02:24:49.999Z,98.49
2017-03-22T02:25:59.542Z,99.15
2017-03-22T02:27:08.431Z,99.9
2017-03-22T02:28:18.289Z,99.43
2017-03-22T02:29:28.153Z,99.81
2017-03-22T02:30:37.142Z,99.99
2017-03-22T02:31:46.352Z,99.99
2017-03-22T02:32:55.560Z,99.99
2017-03-22T02:34:04.770Z,99.99
2017-03-22T02:35:13.976Z,99.99
2017-03-22T02:36:23.158Z,99.99
2017-03-22T02:37:32.371Z,99.99
2017-03-22T02:38:42.271Z,99.99
2017-03-22T02:39:52.457Z,99.99
2017-03-22T02:41:01.996Z,99.99
2017-03-22T02:42:11.353Z,99.99
2017-03-22T02:43:20.562Z,99.99
2017-03-22T02:44:30.429Z,99.99
2017-03-22T02:45:39.647Z,99.99
2017-03-22T02:46:48.852Z,99.99
2017-03-22T02:47:57.989Z,99.99
2017-03-22T02:49:07.526Z,99.99
2017-03-22T02:50:17.716Z,99.99
2017-03-22T02:51:26.605Z,99.99
2017-03-22T02:52:35.490Z,99.99
2017-03-22T02:53:45.506Z,99.99
2017-03-22T02:54:55.051Z,99.99
2017-03-22T02:56:04.587Z,99.99
2017-03-22T02:57:13.803Z,99.99
2017-03-22T02:58:23.020Z,99.99
2017-03-22T02:59:32.907Z,99.99
2017-03-22T03:00:42.119Z,99.99
2017-03-22T03:01:51.331Z,99.99
2017-03-22T03:03:00.221Z,99.99
2017-03-22T03:04:09.438Z,99.99
2017-03-22T03:05:18.952Z,99.99
2017-03-22T03:06:27.832Z,99.99
2017-03-22T03:07:37.375Z,99.99
2017-03-22T03:08:47.243Z,99.99
2017-03-22T03:09:57.428Z,99.99
2017-03-22T03:11:06.791Z,99.99
2017-03-22T03:12:16.006Z,99.99
2017-03-22T03:13:25.219Z,99.99
2017-03-22T03:14:34.758Z,99.99
2017-03-22T03:15:44.620Z,99.99
2017-03-22T03:16:54.680Z,99.99
2017-03-22T03:18:04.223Z,99.99
2017-03-22T03:19:13.437Z,99.99
2017-03-22T03:20:23.297Z,99.99
2017-03-22T03:21:32.508Z,99.99
2017-03-22T03:22:41.692Z,99.99
2017-03-22T03:23:51.230Z,99.99
2017-03-22T03:25:00.771Z,99.99
2017-03-22T03:26:10.306Z,99.99
2017-03-22T03:27:19.520Z,99.99
2017-03-22T03:28:29.310Z,99.99
2017-03-22T03:29:38.896Z,99.99
2017-03-22T03:30:48.103Z,99.99
2017-03-22T03:31:57.639Z,99.99
2017-03-22T03:33:06.527Z,99.99
2017-03-22T03:34:16.212Z,99.99
2017-03-22T03:35:26.400Z,99.99
2017-03-22T03:36:35.939Z,99.99
2017-03-22T03:37:44.826Z,99.99
2017-03-22T03:38:54.693Z,99.99
2017-03-22T03:40:04.817Z,99.99
2017-03-22T03:41:14.020Z,99.99
2017-03-22T03:42:22.900Z,99.99
2017-03-22T03:43:31.788Z,99.99
2017-03-22T03:44:41.653Z,99.99
2017-03-22T03:45:51.360Z,99.99
2017-03-22T03:47:00.573Z,99.99
2017-03-22T03:48:10.108Z,99.99
2017-03-22T03:49:19.978Z,99.99
2017-03-22T03:50:30.205Z,99.99
2017-03-22T03:51:39.238Z,99.99
2017-03-22T03:52:48.446Z,99.99
2017-03-22T03:53:57.984Z,99.99
2017-03-22T03:55:07.516Z,99.99
2017-03-22T03:56:16.397Z,99.99
2017-03-22T03:57:25.587Z,99.99
2017-03-22T03:58:35.129Z,99.99
2017-03-22T03:59:44.668Z,99.99
2017-03-22T04:00:54.202Z,99.99
2017-03-22T04:02:03.091Z,99.99
2017-03-22T04:03:12.621Z,99.99
2017-03-22T04:04:22.163Z,99.99
2017-03-22T04:05:32.347Z,99.99
2017-03-22T04:06:41.558Z,99.99
2017-03-22T04:07:50.443Z,99.99
2017-03-22T04:08:59.704Z,99.99
2017-03-22T04:10:09.245Z,99.99
2017-03-22T04:11:18.135Z,99.99
2017-03-22T04:12:28.011Z,99.99
2017-03-22T04:13:37.882Z,99.99
2017-03-22T04:14:48.142Z,99.99
2017-03-22T04:15:57.354Z,99.99
2017-03-22T04:17:06.562Z,99.99
2017-03-22T04:18:15.772Z,99.99
2017-03-22T04:19:25.631Z,99.99
2017-03-22T04:20:34.997Z,99.99
2017-03-22T04:21:43.883Z,99.99
2017-03-22T04:22:52.767Z,99.99
2017-03-22T04:24:02.666Z,99.99
2017-03-22T04:25:11.887Z,99.99
2017-03-22T04:26:21.675Z,99.99
2017-03-22T04:27:30.885Z,99.99
2017-03-22T04:28:40.422Z,99.99
2017-03-22T04:29:49.970Z,99.99
2017-03-22T04:30:59.187Z,99.99
2017-03-22T04:32:08.793Z,99.99
2017-03-22T04:33:18.326Z,99.99
2017-03-22T04:34:28.192Z,99.99
2017-03-22T04:35:37.761Z,99.99
2017-03-22T04:36:47.000Z,99.99
2017-03-22T04:37:56.148Z,99.99
2017-03-22T04:39:06.334Z,99.99
2017-03-22T04:40:16.202Z,99.99
2017-03-22T04:41:25.411Z,99.99
2017-03-22T04:42:34.294Z,99.99
2017-03-22T04:43:44.260Z,99.99
2017-03-22T04:44:54.122Z,99.99
2017-03-22T04:46:03.987Z,99.99
2017-03-22T04:47:12.871Z,99.99
2017-03-22T04:48:22.400Z,99.99
2017-03-22T04:49:31.718Z,99.99
2017-03-22T04:50:40.947Z,99.99
2017-03-22T04:51:49.866Z,99.99
2017-03-22T04:52:59.083Z,99.99
2017-03-22T04:54:09.275Z,99.99
2017-03-22T04:55:19.293Z,99.99
2017-03-22T04:56:28.184Z,99.99
2017-03-22T04:57:37.067Z,99.99
2017-03-22T04:58:46.605Z,99.99
2017-03-22T04:59:56.474Z,99.99
2017-03-22T05:01:06.754Z,99.99
2017-03-22T05:02:15.968Z,99.99
2017-03-22T05:03:24.864Z,99.99
2017-03-22T05:04:34.727Z,99.99
2017-03-22T05:05:43.608Z,99.99
2017-03-22T05:06:52.534Z,99.99
2017-03-22T05:08:01.744Z,99.99
2017-03-22T05:09:11.610Z,99.99
2017-03-22T05:10:20.819Z,99.99
2017-03-22T05:11:29.697Z,99.99
2017-03-22T05:12:39.054Z,99.99
2017-03-22T05:13:48.590Z,99.99
2017-03-22T05:14:58.453Z,99.99
2017-03-22T05:16:07.996Z,99.99
2017-03-22T05:17:17.531Z,99.99
2017-03-22T05:18:27.119Z,99.99
2017-03-22T05:19:36.978Z,99.99
2017-03-22T05:20:46.191Z,99.99
2017-03-22T05:21:55.399Z,99.99
2017-03-22T05:23:04.287Z,99.99
2017-03-22T05:24:14.727Z,99.99
2017-03-22T05:25:24.920Z,99.99
2017-03-22T05:26:34.129Z,99.99
2017-03-22T05:27:43.660Z,99.99
2017-03-22T05:28:52.872Z,99.99
2017-03-22T05:30:01.802Z,99.99
2017-03-22T05:31:10.687Z,99.99
2017-03-22T05:32:19.905Z,99.99
2017-03-22T05:33:29.111Z,99.99
2017-03-22T05:34:38.324Z,99.99
2017-03-22T05:35:47.633Z,99.99
2017-03-22T05:36:56.520Z,99.99
2017-03-22T05:38:06.071Z,99.99
2017-03-22T05:39:14.956Z,99.99
2017-03-22T05:40:25.187Z,99.99
2017-03-22T05:41:34.767Z,99.99
2017-03-22T05:42:44.304Z,99.99
2017-03-22T05:43:54.162Z,99.99
2017-03-22T05:45:03.703Z,99.99
2017-03-22T05:46:12.594Z,99.99
2017-03-22T05:47:22.057Z,99.99
2017-03-22T05:48:31.268Z,99.99
2017-03-22T05:49:40.488Z,99.99
2017-03-22T05:50:49.704Z,99.99
2017-03-22T05:51:58.917Z,99.99
2017-03-22T05:53:08.603Z,99.99
2017-03-22T05:54:18.142Z,99.99
2017-03-22T05:55:27.678Z,99.99
2017-03-22T05:56:36.560Z,99.99
2017-03-22T05:57:45.777Z,99.99
2017-03-22T05:58:55.656Z,99.99
2017-03-22T06:00:05.027Z,99.99
2017-03-22T06:01:13.912Z,99.99
2017-03-22T06:02:23.117Z,99.99
2017-03-22T06:03:32.653Z,99.99
2017-03-22T06:04:42.239Z,99.99
2017-03-22T06:05:52.446Z,99.99
2017-03-22T06:07:01.976Z,99.99
2017-03-22T06:08:10.867Z,99.99
2017-03-22T06:09:20.083Z,99.99
2017-03-22T06:10:30.269Z,99.99
2017-03-22T06:11:39.475Z,99.99
2017-03-22T06:12:48.369Z,99.99
2017-03-22T06:13:57.581Z,99.99
2017-03-22T06:15:06.790Z,99.99
2017-03-22T06:16:16.000Z,99.99
2017-03-22T06:17:24.889Z,99.99
2017-03-22T06:18:34.806Z,99.99
2017-03-22T06:19:44.014Z,99.99
2017-03-22T06:20:54.205Z,99.99
2017-03-22T06:22:03.085Z,99.99
2017-03-22T06:23:12.297Z,99.99
2017-03-22T06:24:21.989Z,99.99
2017-03-22T06:25:30.872Z,99.99
2017-03-22T06:26:40.082Z,99.99
2017-03-22T06:27:48.970Z,99.99
2017-03-22T06:28:58.190Z,99.99
2017-03-22T06:30:07.985Z,99.99
2017-03-22T06:31:17.196Z,99.99
2017-03-22T06:32:26.083Z,99.99
2017-03-22T06:33:35.621Z,99.99
2017-03-22T06:34:44.843Z,99.99
2017-03-22T06:35:54.478Z,99.99
2017-03-22T06:37:04.340Z,99.99
2017-03-22T06:38:13.555Z,99.99
2017-03-22T06:39:23.419Z,99.99
2017-03-22T06:40:33.277Z,99.99
2017-03-22T06:41:43.084Z,99.99
2017-03-22T06:42:52.298Z,99.99
2017-03-22T06:44:01.837Z,99.99
2017-03-22T06:45:11.708Z,99.99
2017-03-22T06:46:20.592Z,99.99
2017-03-22T06:47:30.054Z,99.99
2017-03-22T06:48:39.922Z,99.99
2017-03-22T06:49:50.140Z,99.99
2017-03-22T06:50:59.727Z,99.99
2017-03-22T06:52:08.935Z,99.99
2017-03-22T06:53:19.047Z,99.99
2017-03-22T06:54:28.929Z,99.99
2017-03-22T06:55:38.145Z,99.99
2017-03-22T06:56:48.010Z,99.99
2017-03-22T06:57:57.222Z,99.99
2017-03-22T06:59:07.139Z,99.99
2017-03-22T07:00:16.357Z,99.99
2017-03-22T07:01:25.250Z,99.99
2017-03-22T07:02:34.135Z,99.99
2017-03-22T07:03:44.001Z,99.99
2017-03-22T07:04:54.120Z,99.99
2017-03-22T07:06:03.687Z,99.99
2017-03-22T07:07:12.578Z,99.99
2017-03-22T07:08:22.162Z,99.81
2017-03-22T07:09:32.024Z,99.99
2017-03-22T07:10:41.060Z,99.81
2017-03-22T07:11:49.954Z,99.99
2017-03-22T07:12:59.189Z,99.99
2017-03-22T07:14:09.063Z,99.99
2017-03-22T07:15:18.602Z,99.99
2017-03-22T07:16:28.231Z,99.99
2017-03-22T07:17:37.122Z,99.52
2017-03-22T07:18:46.337Z,99.52
2017-03-22T07:19:55.878Z,99.15
2017-03-22T07:21:05.099Z,99.33
2017-03-22T07:22:14.460Z,99.52
2017-03-22T07:23:23.353Z,99.62
2017-03-22T07:24:32.587Z,99.99
2017-03-22T07:25:41.478Z,99.52
2017-03-22T07:26:50.364Z,99.58
2017-03-22T07:27:59.955Z,99.29
2017-03-22T07:29:10.642Z,98.49
2017-03-22T07:30:19.856Z,97.87
2017-03-22T07:31:29.714Z,97.68
2017-03-22T07:32:38.928Z,98.06
2017-03-22T07:33:48.996Z,96.36
2017-03-22T07:34:59.193Z,96.55
2017-03-22T07:36:08.406Z,95.88
2017-03-22T07:37:17.298Z,95.88
2017-03-22T07:38:26.513Z,94.84
2017-03-22T07:39:36.527Z,94.65
2017-03-22T07:40:46.061Z,94.46
2017-03-22T07:41:55.179Z,95.6
2017-03-22T07:43:04.396Z,95.22
2017-03-22T07:44:13.965Z,96.07
2017-03-22T07:45:23.660Z,96.36
2017-03-22T07:46:33.196Z,95.03
2017-03-22T07:47:42.740Z,94.74
2017-03-22T07:48:51.970Z,94.7
2017-03-22T07:50:01.839Z,94.32
2017-03-22T07:51:11.101Z,93.75
2017-03-22T07:52:19.990Z,93.56
2017-03-22T07:53:28.913Z,91.95
2017-03-22T07:54:39.110Z,91.66
2017-03-22T07:55:48.646Z,91.57
2017-03-22T07:56:57.594Z,90.81
2017-03-22T07:58:07.497Z,91.33
2017-03-22T07:59:17.042Z,88.92
2017-03-22T08:00:26.624Z,89.25
2017-03-22T08:01:36.195Z,89.91
2017-03-22T08:02:45.136Z,89.91
2017-03-22T08:03:55.012Z,89.34
2017-03-22T08:05:04.549Z,88.77
2017-03-22T08:06:14.088Z,88.68
2017-03-22T08:07:22.974Z,88.01
2017-03-22T08:08:31.966Z,87.73
2017-03-22T08:09:41.837Z,87.45
2017-03-22T08:10:51.049Z,87.54
2017-03-22T08:12:00.273Z,86.02
2017-03-22T08:13:09.493Z,85.78
2017-03-22T08:14:19.946Z,86.07
2017-03-22T08:15:29.488Z,84.07
2017-03-22T08:16:38.378Z,83.03
2017-03-22T08:17:47.601Z,83.22
2017-03-22T08:18:57.477Z,82.08
2017-03-22T08:20:07.340Z,81.51
2017-03-22T08:21:16.232Z,80.56
2017-03-22T08:22:25.450Z,82.36
2017-03-22T08:23:35.328Z,81.41
2017-03-22T08:24:45.199Z,81.93
2017-03-22T08:25:54.898Z,83.22
2017-03-22T08:27:03.790Z,83.92
2017-03-22T08:28:12.682Z,83.36
2017-03-22T08:29:21.896Z,83.54
2017-03-22T08:30:31.116Z,83.92
2017-03-22T08:31:40.007Z,82.03
2017-03-22T08:32:48.892Z,82.21
2017-03-22T08:33:58.432Z,82.12
2017-03-22T08:35:07.645Z,83.64
2017-03-22T08:36:16.531Z,81.45
2017-03-22T08:37:25.584Z,81.55
2017-03-22T08:38:35.123Z,81.93
2017-03-22T08:39:44.011Z,83.16
2017-03-22T08:40:52.896Z,83.07
2017-03-22T08:42:01.790Z,82.21
2017-03-22T08:43:11.104Z,83.26
2017-03-22T08:44:20.651Z,82.97
2017-03-22T08:45:29.535Z,82.31
2017-03-22T08:46:38.430Z,80.41
2017-03-22T08:47:47.320Z,81.74
2017-03-22T08:48:56.683Z,82.64
2017-03-22T08:50:06.221Z,81.68
2017-03-22T08:51:15.120Z,79.79
2017-03-22T08:52:24.339Z,79.31
2017-03-22T08:53:33.226Z,77.7
2017-03-22T08:54:42.325Z,76.75
2017-03-22T08:55:51.212Z,75.32
2017-03-22T08:57:00.425Z,76.18
2017-03-22T08:58:09.643Z,76.08
2017-03-22T08:59:18.553Z,76.27
2017-03-22T09:00:28.025Z,77.12
2017-03-22T09:01:36.910Z,76.37
2017-03-22T09:02:45.799Z,75.32
2017-03-22T09:03:54.684Z,75.6
2017-03-22T09:05:04.226Z,75.74
2017-03-22T09:06:13.266Z,74.22
2017-03-22T09:07:22.156Z,73.93
2017-03-22T09:08:31.366Z,74.22
2017-03-22T09:09:40.253Z,75.26
2017-03-22T09:10:49.141Z,75.64
2017-03-22T09:11:58.660Z,75.07
2017-03-22T09:13:07.878Z,74.98
2017-03-22T09:14:16.764Z,77.17
2017-03-22T09:15:25.984Z,76.4
2017-03-22T09:16:34.873Z,73.46
2017-03-22T09:17:43.859Z,73.93
2017-03-22T09:18:53.070Z,74.03
2017-03-22T09:20:01.995Z,73.08
2017-03-22T09:21:10.880Z,72.83
2017-03-22T09:22:19.771Z,74.26
2017-03-22T09:23:28.691Z,74.44
2017-03-22T09:24:37.581Z,73.59
2017-03-22T09:25:46.477Z,71.97
2017-03-22T09:26:55.360Z,70.83
2017-03-22T09:28:04.250Z,70.54
2017-03-22T09:29:13.441Z,68.93
2017-03-22T09:30:22.658Z,68.17
2017-03-22T09:31:31.874Z,67.79
2017-03-22T09:32:41.413Z,66.74
2017-03-22T09:33:50.300Z,66.46
2017-03-22T09:34:59.341Z,66.46
2017-03-22T09:36:08.229Z,65.7
2017-03-22T09:37:17.117Z,64.37
2017-03-22T09:38:26.004Z,65.13
2017-03-22T09:39:34.923Z,65.13
2017-03-22T09:40:44.162Z,64.56
2017-03-22T09:41:53.049Z,63.42
2017-03-22T09:43:02.262Z,62.4
2017-03-22T09:44:11.148Z,62.12
2017-03-22T09:45:20.034Z,62.49
2017-03-22T09:46:28.920Z,63.54
2017-03-22T09:47:37.803Z,64.4
2017-03-22T09:48:46.691Z,63.73
2017-03-22T09:49:55.909Z,62.97
2017-03-22T09:51:04.797Z,63.45
2017-03-22T09:52:13.733Z,64.02
2017-03-22T09:53:22.952Z,62.97
2017-03-22T09:54:32.487Z,61.64
2017-03-22T09:55:41.702Z,61.26
2017-03-22T09:56:50.918Z,60.78
2017-03-22T09:58:00.057Z,60.31
2017-03-22T09:59:09.284Z,61.26
2017-03-22T10:00:18.174Z,63.07
2017-03-22T10:01:27.067Z,61.74
2017-03-22T10:02:36.282Z,58.31
2017-03-22T10:03:45.331Z,58.5
2017-03-22T10:04:54.225Z,56.6
2017-03-22T10:06:03.762Z,55.58
2017-03-22T10:07:12.649Z,54.72
2017-03-22T10:08:21.543Z,57.2
2017-03-22T10:09:30.584Z,56.72
2017-03-22T10:10:40.167Z,58.25
2017-03-22T10:11:49.059Z,56.05
2017-03-22T10:12:57.952Z,55.87
2017-03-22T10:14:07.168Z,55.77
2017-03-22T10:15:16.206Z,53.96
2017-03-22T10:16:25.420Z,52.72
2017-03-22T10:17:34.307Z,51.49
2017-03-22T10:18:43.196Z,50.82
2017-03-22T10:19:52.083Z,52.06
2017-03-22T10:21:01.024Z,50.92
2017-03-22T10:22:09.913Z,50.44
2017-03-22T10:23:19.453Z,50.56
2017-03-22T10:24:28.667Z,51.23
2017-03-22T10:25:37.876Z,50.09
2017-03-22T10:26:46.815Z,49.96
2017-03-22T10:27:56.033Z,49.96
2017-03-22T10:29:05.404Z,51.01
2017-03-22T10:30:14.290Z,50.09
2017-03-22T10:31:23.500Z,51.04
2017-03-22T10:32:32.563Z,52.25
2017-03-22T10:33:41.450Z,51.39
2017-03-22T10:34:50.340Z,51.61
2017-03-22T10:35:59.228Z,52.37
2017-03-22T10:37:08.117Z,52.47
2017-03-22T10:38:17.356Z,53.99
2017-03-22T10:39:26.570Z,51.7
2017-03-22T10:40:35.458Z,52.75
2017-03-22T10:41:44.344Z,52.18
2017-03-22T10:42:53.239Z,52.37
2017-03-22T10:44:02.229Z,52.18
2017-03-22T10:45:11.122Z,53.61
2017-03-22T10:46:20.015Z,51.32
2017-03-22T10:47:28.902Z,50.11
2017-03-22T10:48:38.114Z,48.78
2017-03-22T10:49:47.159Z,48.39
2017-03-22T10:50:56.374Z,45.92
2017-03-22T10:52:05.265Z,44.96
2017-03-22T10:53:14.155Z,46.01
2017-03-22T10:54:23.051Z,46.01
2017-03-22T10:55:31.991Z,45.15
2017-03-22T10:56:40.878Z,44.39
2017-03-22T10:57:50.092Z,42.01
2017-03-22T10:58:58.981Z,40.01
2017-03-22T11:00:08.520Z,41.82
2017-03-22T11:01:17.466Z,41.92
2017-03-22T11:02:26.353Z,39.63
2017-03-22T11:03:35.244Z,38.49
2017-03-22T11:04:44.140Z,39.63
2017-03-22T11:05:53.354Z,37.63
2017-03-22T11:07:02.391Z,33.44
2017-03-22T11:08:11.285Z,34.11
2017-03-22T11:09:20.172Z,33.63
2017-03-22T11:10:29.707Z,34.87
2017-03-22T11:11:38.937Z,34.87
2017-03-22T11:12:48.250Z,35.25
2017-03-22T11:13:57.140Z,36.2
2017-03-22T11:15:06.033Z,37.25
2017-03-22T11:16:15.247Z,38.39
2017-03-22T11:17:24.141Z,37.73
2017-03-22T11:18:33.381Z,36.96
2017-03-22T11:19:42.275Z,36.3
2017-03-22T11:20:51.168Z,36.49
2017-03-22T11:22:00.055Z,37.65
2017-03-22T11:23:09.269Z,38.32
2017-03-22T11:24:18.589Z,38.79
2017-03-22T11:25:27.478Z,37.74
2017-03-22T11:26:36.698Z,37.55
2017-03-22T11:27:45.590Z,37.36
2017-03-22T11:28:54.803Z,38.41
2017-03-22T11:30:03.795Z,39.46
2017-03-22T11:31:12.685Z,39.84
2017-03-22T11:32:21.572Z,41.65
2017-03-22T11:33:30.466Z,41.36
2017-03-22T11:34:39.688Z,39.56
2017-03-22T11:35:49.209Z,39.65
2017-03-22T11:36:58.421Z,39.36
2017-03-22T11:38:07.313Z,40.03
2017-03-22T11:39:16.528Z,41.08
2017-03-22T11:40:25.427Z,40.6
2017-03-22T11:41:35.441Z,39.65
2017-03-22T11:42:44.657Z,39.17
2017-03-22T11:43:53.547Z,39.46
2017-03-22T11:45:02.436Z,38.51
2017-03-22T11:46:11.326Z,39.65
2017-03-22T11:47:20.600Z,40.03
2017-03-22T11:48:29.522Z,40.89
2017-03-22T11:49:38.415Z,39.19
2017-03-22T11:50:47.305Z,38.71
2017-03-22T11:51:56.193Z,39.19
2017-03-22T11:53:05.393Z,38.43
2017-03-22T11:54:14.619Z,39.39
2017-03-22T11:55:23.510Z,39.48
2017-03-22T11:56:32.399Z,40.44
2017-03-22T11:57:41.291Z,36.9
2017-03-22T11:58:50.329Z,36.71
2017-03-22T11:59:59.221Z,36.05
2017-03-22T12:01:08.766Z,36.71
2017-03-22T12:02:17.657Z,36.62
2017-03-22T12:03:26.546Z,35.95
2017-03-22T12:04:35.595Z,36.43
2017-03-22T12:05:44.812Z,37
2017-03-22T12:06:53.712Z,37.38
2017-03-22T12:08:02.604Z,36.92
2017-03-22T12:09:11.494Z,37.3
2017-03-22T12:10:20.764Z,37.3
2017-03-22T12:11:29.996Z,34.92
2017-03-22T12:12:39.219Z,35.68
2017-03-22T12:13:48.113Z,35.78
2017-03-22T12:14:57.371Z,37.78
2017-03-22T12:16:06.366Z,36.75
2017-03-22T12:17:15.261Z,35.89
2017-03-22T12:18:24.161Z,36.37
2017-03-22T12:19:33.383Z,35.6
2017-03-22T12:20:42.322Z,34.46
2017-03-22T12:21:51.948Z,36.08
2017-03-22T12:23:00.849Z,35.22
2017-03-22T12:24:10.090Z,34.27
2017-03-22T12:25:19.323Z,34.27
2017-03-22T12:26:28.227Z,34.08
2017-03-22T12:27:37.380Z,34
2017-03-22T12:28:46.282Z,35.72
2017-03-22T12:29:55.183Z,34.38
2017-03-22T12:31:04.406Z,34.86
2017-03-22T12:32:13.305Z,34.67
2017-03-22T12:33:22.586Z,35.43
2017-03-22T12:34:31.516Z,35.32
2017-03-22T12:35:40.417Z,36.75
2017-03-22T12:36:49.639Z,35.6
2017-03-22T12:37:58.538Z,35.32
2017-03-22T12:39:07.589Z,35.13
2017-03-22T12:40:16.499Z,34.28
2017-03-22T12:41:25.726Z,34.94
2017-03-22T12:42:35.274Z,34.75
2017-03-22T12:43:44.176Z,34
2017-03-22T12:44:53.233Z,32.65
2017-03-22T12:46:02.462Z,33.98
2017-03-22T12:47:11.365Z,33.22
2017-03-22T12:48:20.267Z,33.12
2017-03-22T12:49:29.499Z,34.75
2017-03-22T12:50:38.455Z,34.57
2017-03-22T12:51:48.013Z,34.19
2017-03-22T12:52:56.918Z,33.52
2017-03-22T12:54:06.154Z,33.04
2017-03-22T12:55:15.381Z,32.66
2017-03-22T12:56:24.439Z,33.52
2017-03-22T12:57:33.343Z,32.66
2017-03-22T12:58:42.242Z,32.47
2017-03-22T12:59:51.144Z,32.66
2017-03-22T13:01:00.416Z,34.19
2017-03-22T13:02:09.803Z,33.71
2017-03-22T13:03:18.741Z,32.47
2017-03-22T13:04:27.642Z,33.52
2017-03-22T13:05:36.545Z,33.23
2017-03-22T13:06:46.095Z,32.39
2017-03-22T13:07:55.488Z,33.25
2017-03-22T13:09:04.394Z,33.35
2017-03-22T13:10:13.298Z,32.29
2017-03-22T13:11:22.210Z,31.43
2017-03-22T13:12:31.441Z,32.49
2017-03-22T13:13:40.722Z,32.79
2017-03-22T13:14:49.630Z,32.89
2017-03-22T13:15:58.864Z,33.35
2017-03-22T13:17:07.767Z,34.2
2017-03-22T13:18:16.675Z,34
2017-03-22T13:19:26.166Z,34.11
2017-03-22T13:20:35.072Z,33.42
2017-03-22T13:21:44.296Z,33.23
2017-03-22T13:22:53.202Z,34.67
2017-03-22T13:24:02.104Z,36
2017-03-22T13:25:11.385Z,36.31
2017-03-22T13:26:20.289Z,35.74
2017-03-22T13:27:29.524Z,35.35
2017-03-22T13:28:38.427Z,35.24
2017-03-22T13:29:47.331Z,35.53
2017-03-22T13:30:56.920Z,35.62
2017-03-22T13:32:05.820Z,34.57
2017-03-22T13:33:14.720Z,33.71
2017-03-22T13:34:24.271Z,33.35
2017-03-22T13:35:33.169Z,33.14
2017-03-22T13:36:42.972Z,34.28
2017-03-22T13:37:51.918Z,34.78
2017-03-22T13:39:01.483Z,34.97
2017-03-22T13:40:11.047Z,35.35
2017-03-22T13:41:19.950Z,35.28
2017-03-22T13:42:29.559Z,34.61
2017-03-22T13:43:38.836Z,34.61
2017-03-22T13:44:48.382Z,32.41
2017-03-22T13:45:57.933Z,32.03
2017-03-22T13:47:06.837Z,33.07
2017-03-22T13:48:16.152Z,34.4
2017-03-22T13:49:25.053Z,34.4
2017-03-22T13:50:33.949Z,33.73
2017-03-22T13:51:43.171Z,31.92
2017-03-22T13:52:52.087Z,32.29
2017-03-22T13:54:01.245Z,32.03
2017-03-22T13:55:10.145Z,31.45
2017-03-22T13:56:19.044Z,33.07
2017-03-22T13:57:28.594Z,34.13
2017-03-22T13:58:37.498Z,32.89
2017-03-22T13:59:46.553Z,34.7
2017-03-22T14:00:55.453Z,33.75
2017-03-22T14:02:04.685Z,34.34
2017-03-22T14:03:13.584Z,34.14
2017-03-22T14:04:22.489Z,34.45
2017-03-22T14:05:31.767Z,34.36
2017-03-22T14:06:40.996Z,34.06
2017-03-22T14:07:49.901Z,33.69
2017-03-22T14:08:58.807Z,33.3
2017-03-22T14:10:07.723Z,34.26
2017-03-22T14:11:16.883Z,35.31
2017-03-22T14:12:25.791Z,35.41
2017-03-22T14:13:34.732Z,35.12
2017-03-22T14:14:43.974Z,34.74
2017-03-22T14:15:53.205Z,34.63
2017-03-22T14:17:02.266Z,34.34
2017-03-22T14:18:11.510Z,34.61
2017-03-22T14:19:20.435Z,34.51
2017-03-22T14:20:29.673Z,31.64
2017-03-22T14:21:38.579Z,31.47
2017-03-22T14:22:47.738Z,30.61
2017-03-22T14:23:57.298Z,30.24
2017-03-22T14:25:06.867Z,29.47
2017-03-22T14:26:16.101Z,29.66
2017-03-22T14:27:25.332Z,30.22
2017-03-22T14:28:34.758Z,30.8
2017-03-22T14:29:43.985Z,30.7
2017-03-22T14:30:52.895Z,31.16
2017-03-22T14:32:01.802Z,31.37
2017-03-22T14:33:10.720Z,31.55
2017-03-22T14:34:20.049Z,31.55
2017-03-22T14:35:29.288Z,31.27
2017-03-22T14:36:38.850Z,31.48
2017-03-22T14:37:48.084Z,32.52
2017-03-22T14:38:56.995Z,33.48
2017-03-22T14:40:06.053Z,33.19
2017-03-22T14:41:14.969Z,33.17
2017-03-22T14:42:23.884Z,33.65
2017-03-22T14:43:32.791Z,34.34
2017-03-22T14:44:42.030Z,34.32
2017-03-22T14:45:51.516Z,33.56
2017-03-22T14:47:00.751Z,33.19
2017-03-22T14:48:09.660Z,32.9
2017-03-22T14:49:18.901Z,32.31
2017-03-22T14:50:27.807Z,32.41
2017-03-22T14:51:36.731Z,32.62
2017-03-22T14:52:45.764Z,32.04
2017-03-22T14:53:54.689Z,32.42
2017-03-22T14:55:04.258Z,31.96